Terminal Aerodrome Forecast
Issued by NWS

Home | Current Version | Previous Version | Text Only | Print | Product List | Glossary On
Versions: 1 2 3 4 5 6 7 8 9 10 11 12 13 14 15 16 17 18 19 20 21 22 23 24 25 26 27 28 29
000
FTUS41 KILN 162300
TAFLUK
TAF
KLUK 162325Z 1700/1724 00000KT P6SM OVC030
     FM170800 00000KT 2SM BR SCT001 SCT030
     FM170900 00000KT 1/4SM FG VV001
     FM171300 00000KT 1SM BR SCT001 SCT030
     FM171400 VRB03KT P6SM SCT030
     FM171600 26004KT P6SM BKN040
     FM172300 34004KT P6SM BKN120=

USA.gov is the U.S. government's official web portal to all federal, state and local government web resources and services.